createdAt,value
2023-01-28T00:01:10.191Z,88.24
2023-01-28T00:03:39.744Z,88.41
2023-01-28T00:06:08.950Z,88.23
2023-01-28T00:08:36.817Z,88.14
2023-01-28T00:11:06.576Z,88.17
2023-01-28T00:13:35.765Z,88.37
2023-01-28T00:16:04.790Z,88.31
2023-01-28T00:18:34.360Z,88.48
2023-01-28T00:21:06.480Z,88.39
2023-01-28T00:23:36.083Z,88.22
2023-01-28T00:26:04.832Z,88.16
2023-01-28T00:28:35.190Z,88.29
2023-01-28T00:31:24.969Z,88.29
2023-01-28T00:33:55.629Z,88.46
2023-01-28T00:36:27.053Z,88.45
2023-01-28T00:38:58.363Z,88.17
2023-01-28T00:41:28.071Z,87.91
2023-01-28T00:43:55.160Z,87.97
2023-01-28T00:46:22.907Z,87.69
2023-01-28T00:48:51.308Z,87.20
2023-01-28T00:51:21.848Z,86.76
2023-01-28T00:53:53.790Z,86.73
2023-01-28T00:56:22.397Z,86.88
2023-01-28T00:58:49.682Z,86.69
2023-01-28T01:01:23.588Z,86.71
2023-01-28T01:03:57.147Z,86.96
2023-01-28T01:06:27.251Z,86.94
2023-01-28T01:08:55.124Z,87.28
2023-01-28T01:11:23.113Z,87.41
2023-01-28T01:13:59.709Z,87.59
2023-01-28T01:16:28.804Z,87.67
2023-01-28T01:18:59.130Z,87.83
2023-01-28T01:21:32.171Z,88.04
2023-01-28T01:24:01.408Z,87.95
2023-01-28T01:26:32.239Z,88.22
2023-01-28T01:29:02.404Z,88.24
2023-01-28T01:31:31.282Z,88.34
2023-01-28T01:34:02.416Z,88.54
2023-01-28T01:36:32.561Z,88.82
2023-01-28T01:39:00.861Z,88.78
2023-01-28T01:41:31.179Z,88.71
2023-01-28T01:44:03.073Z,88.58
2023-01-28T01:46:39.836Z,88.66
2023-01-28T01:49:25.861Z,88.86
2023-01-28T01:52:03.413Z,88.61
2023-01-28T01:54:30.705Z,88.56
2023-01-28T01:56:57.955Z,88.62
2023-01-28T01:59:27.830Z,88.90
2023-01-28T02:01:57.629Z,88.85
2023-01-28T02:04:27.453Z,88.94
2023-01-28T02:06:55.844Z,88.86
2023-01-28T02:09:35.808Z,88.66
2023-01-28T02:12:24.796Z,88.40
2023-01-28T05:57:01.614Z,89.43
2023-01-28T05:59:33.222Z,89.08
2023-01-28T06:02:04.880Z,88.93
2023-01-28T06:04:36.330Z,88.96
2023-01-28T06:07:07.205Z,89.02
2023-01-28T06:09:41.203Z,88.68
2023-01-28T06:12:10.738Z,88.65
2023-01-28T06:14:55.393Z,88.43
2023-01-28T06:17:45.368Z,88.34
2023-01-28T06:20:27.828Z,88.50
2023-01-28T06:23:04.022Z,88.48
2023-01-28T06:25:36.522Z,88.61
2023-01-28T06:28:12.767Z,88.45
2023-01-28T06:30:42.692Z,88.80
2023-01-28T06:33:11.213Z,89.15
2023-01-28T06:35:39.713Z,89.29
2023-01-28T06:38:09.012Z,89.45
2023-01-28T06:40:40.059Z,89.63
2023-01-28T06:43:08.418Z,89.18
2023-01-28T06:45:39.164Z,88.80
2023-01-28T06:48:12.459Z,88.32
2023-01-28T06:50:42.468Z,88.43
2023-01-28T06:53:11.205Z,88.46
2023-01-28T06:55:39.671Z,88.35
2023-01-28T06:58:08.122Z,88.06
2023-01-28T07:00:39.128Z,88.31
2023-01-28T07:03:07.714Z,88.41
2023-01-28T07:05:41.201Z,88.51
2023-01-28T07:08:10.612Z,88.43
2023-01-28T07:10:39.445Z,88.27
2023-01-28T07:13:11.228Z,87.83
2023-01-28T07:15:39.967Z,87.86
2023-01-28T07:18:11.070Z,87.91
2023-01-28T07:20:43.240Z,87.67
2023-01-28T07:23:18.699Z,87.82
2023-01-28T07:25:48.673Z,87.57
2023-01-28T07:28:24.227Z,86.98
2023-01-28T07:30:54.213Z,86.83
2023-01-28T07:33:26.608Z,86.54
2023-01-28T07:35:58.538Z,86.34
2023-01-28T07:41:10.127Z,86.31
2023-01-28T07:43:39.634Z,86.28
2023-01-28T07:46:10.457Z,86.15
2023-01-28T07:48:39.030Z,86.26
2023-01-28T07:51:09.136Z,86.17
2023-01-28T07:53:37.864Z,86.01
2023-01-28T07:56:07.806Z,86.05
2023-01-28T07:58:36.847Z,86.08
2023-01-28T08:01:06.124Z,86.00
2023-01-28T08:03:34.865Z,85.72
2023-01-28T08:06:03.279Z,85.77
2023-01-28T08:08:32.513Z,85.83
2023-01-28T08:11:12.131Z,85.93
2023-01-28T08:13:41.945Z,85.97
2023-01-28T08:16:10.679Z,86.29
2023-01-28T08:18:41.820Z,86.44
2023-01-28T08:21:10.376Z,86.52
2023-01-28T08:23:40.145Z,86.23
2023-01-28T08:26:10.858Z,86.15
2023-01-28T08:28:41.096Z,85.40
2023-01-28T08:31:10.301Z,84.93
2023-01-28T08:33:38.874Z,84.99
2023-01-28T08:36:08.772Z,85.08
2023-01-28T08:38:40.405Z,85.04
2023-01-28T08:41:12.888Z,84.70
2023-01-28T08:43:44.964Z,84.58
2023-01-28T08:46:14.207Z,84.55
2023-01-28T08:48:47.147Z,84.69
2023-01-28T08:51:15.498Z,84.61
2023-01-28T08:53:47.457Z,84.30
2023-01-28T08:56:22.978Z,84.14
2023-01-28T08:58:54.936Z,83.79
2023-01-28T09:01:35.267Z,83.32
2023-01-28T09:04:04.499Z,83.18
2023-01-28T09:06:37.758Z,83.14
2023-01-28T09:09:09.610Z,82.77
2023-01-28T09:13:42.583Z,81.93
2023-01-28T09:16:15.460Z,81.73
2023-01-28T09:18:54.917Z,81.21
2023-01-28T09:21:37.582Z,80.07
2023-01-28T09:24:06.705Z,80.08
2023-01-28T09:26:36.034Z,79.84
2023-01-28T09:29:05.023Z,80.00
2023-01-28T09:32:02.032Z,79.64
2023-01-28T09:34:35.177Z,79.20
2023-01-28T09:37:29.201Z,79.00
2023-01-28T09:40:12.908Z,78.51
2023-01-28T09:42:48.775Z,77.83
2023-01-28T09:45:49.933Z,77.37
2023-01-28T09:48:37.110Z,77.14
2023-01-28T09:51:12.646Z,76.71
2023-01-28T14:01:22.661Z,46.82
2023-01-28T14:04:30.830Z,47.24
2023-01-28T14:07:25.429Z,47.80
2023-01-28T14:10:33.407Z,48.05
2023-01-28T14:13:57.515Z,48.19
2023-01-28T14:16:43.710Z,48.11
2023-01-28T14:19:13.786Z,48.50
2023-01-28T14:21:43.624Z,48.74
2023-01-28T14:24:16.449Z,49.09
2023-01-28T14:26:47.057Z,49.14
2023-01-28T14:29:56.225Z,49.29
2023-01-28T14:32:30.228Z,49.50
2023-01-28T14:35:02.858Z,50.09
2023-01-28T14:37:33.899Z,50.09
2023-01-28T14:40:17.737Z,50.25
2023-01-28T14:42:46.900Z,50.56
2023-01-28T14:45:36.697Z,50.86
2023-01-28T14:48:28.647Z,51.03
2023-01-28T14:51:04.567Z,51.34
2023-01-28T14:54:21.345Z,51.60
2023-01-28T14:57:22.622Z,51.87
2023-01-28T15:00:01.236Z,52.17
2023-01-28T15:02:29.342Z,52.37
2023-01-28T15:05:10.796Z,52.51
2023-01-28T15:07:38.076Z,52.78
2023-01-28T15:10:14.103Z,52.74
2023-01-28T15:12:48.024Z,53.06
2023-01-28T15:15:19.584Z,53.40
2023-01-28T15:17:47.017Z,53.69
2023-01-28T15:20:20.745Z,53.73
2023-01-28T15:22:52.590Z,54.01
2023-01-28T15:25:23.013Z,54.42
2023-01-28T15:27:51.782Z,54.39
2023-01-28T15:30:27.937Z,54.51
2023-01-28T15:33:02.574Z,54.69
2023-01-28T15:35:32.621Z,54.97
2023-01-28T15:38:02.444Z,55.15
2023-01-28T15:40:43.428Z,55.35
2023-01-28T15:43:22.005Z,55.54
2023-01-28T15:52:14.483Z,56.30
2023-01-28T15:54:46.184Z,56.37
2023-01-28T15:57:27.675Z,56.57
2023-01-28T16:00:13.565Z,56.89
2023-01-28T16:03:08.910Z,56.98
2023-01-28T16:05:43.598Z,57.21
2023-01-28T16:08:25.245Z,57.59
2023-01-28T16:10:59.809Z,57.80
2023-01-28T16:13:36.276Z,58.03
2023-01-28T16:16:05.508Z,58.40
2023-01-28T16:18:42.449Z,58.69
2023-01-28T16:21:13.064Z,59.08
2023-01-28T16:24:14.844Z,59.45
2023-01-28T16:26:43.627Z,59.79
2023-01-28T16:29:16.178Z,60.23
2023-01-28T16:31:49.902Z,60.65
2023-01-28T16:34:21.550Z,61.07
2023-01-28T16:37:00.061Z,61.67
2023-01-28T16:39:31.312Z,62.15
2023-01-28T16:42:01.417Z,62.59
2023-01-28T16:44:33.785Z,63.10
2023-01-28T16:47:04.869Z,63.58
2023-01-28T16:49:37.589Z,63.98
2023-01-28T16:52:11.562Z,64.24
2023-01-28T16:54:46.480Z,64.78
2023-01-28T16:57:20.289Z,65.15
2023-01-28T16:59:50.019Z,65.45
2023-01-28T17:02:20.848Z,65.88
2023-01-28T17:05:06.291Z,66.02
2023-01-28T17:07:38.951Z,66.31
2023-01-28T17:10:13.270Z,66.73
2023-01-28T17:12:45.115Z,66.89
2023-01-28T17:15:18.921Z,66.97
2023-01-28T17:17:59.966Z,67.23
2023-01-28T17:20:37.584Z,67.34
2023-01-28T17:23:09.958Z,67.47
2023-01-28T17:25:43.673Z,67.71
2023-01-28T17:28:13.198Z,67.81
2023-01-28T17:30:50.695Z,68.25
2023-01-28T17:33:23.203Z,68.30
2023-01-28T17:35:59.728Z,68.67
2023-01-28T17:38:33.650Z,68.84
2023-01-28T17:41:08.793Z,69.10
2023-01-28T17:43:43.359Z,69.21
2023-01-28T17:46:15.187Z,69.24
2023-01-28T17:48:46.209Z,69.52
2023-01-28T17:51:14.700Z,69.57
2023-01-28T17:53:50.757Z,69.82
2023-01-28T22:03:40.032Z,79.35
2023-01-28T22:06:09.703Z,79.39
2023-01-28T22:08:41.763Z,79.21
2023-01-28T22:11:11.950Z,79.27
2023-01-28T22:13:45.470Z,79.19
2023-01-28T22:16:18.450Z,79.24
2023-01-28T22:18:50.440Z,79.42
2023-01-28T22:21:33.638Z,79.38
2023-01-28T22:24:03.979Z,79.42
2023-01-28T22:26:35.797Z,79.67
2023-01-28T22:29:10.586Z,79.70
2023-01-28T22:31:41.923Z,79.73
2023-01-28T22:34:11.895Z,79.72
2023-01-28T22:36:44.163Z,79.88
2023-01-28T22:39:15.224Z,79.97
2023-01-28T22:41:44.557Z,80.08
2023-01-28T22:44:13.203Z,80.26
2023-01-28T22:46:41.761Z,80.32
2023-01-28T22:49:12.642Z,80.66
2023-01-28T22:51:41.909Z,80.75
2023-01-28T22:54:16.223Z,80.82
2023-01-28T22:56:50.149Z,80.88
2023-01-28T22:59:21.991Z,81.01
2023-01-28T23:01:50.645Z,81.11
2023-01-28T23:04:21.875Z,81.32
2023-01-28T23:06:50.630Z,81.40
2023-01-28T23:09:19.526Z,81.46
2023-01-28T23:11:48.540Z,81.57
2023-01-28T23:14:37.315Z,81.69
2023-01-28T23:17:30.004Z,81.76
2023-01-28T23:20:17.379Z,81.79
2023-01-28T23:23:07.227Z,81.87
2023-01-28T23:25:38.087Z,82.06
2023-01-28T23:28:07.018Z,81.85
2023-01-28T23:30:44.909Z,82.09
2023-01-28T23:33:15.819Z,82.32
2023-01-28T23:41:43.375Z,82.21
2023-01-28T23:44:18.776Z,82.23
2023-01-28T23:46:47.105Z,82.48
2023-01-28T23:49:15.464Z,82.42
2023-01-28T23:51:45.728Z,82.47
2023-01-28T23:54:16.854Z,82.57
2023-01-28T23:56:45.984Z,82.71
2023-01-28T23:59:17.929Z,82.74
